Time;durP1;ratioP1;P1;durP2;ratioP2;P2;SDS_P1;SDS_P2;PMS_P1;PMS_P2;Temp;Humidity;BMP_temperature;BMP_pressure;BME280_temperature;BME280_humidity;BME280_pressure;Samples;Min_cycle;Max_cycle;Signal;HPM_P1;HPM_P2
2023/06/08 03:01:01;;;;;;;13.80;13.07;;;12.30;99.90;;;;;;5679489;23;20266;-74
2023/06/08 03:03:27;;;;;;;11.67;11.03;;;12.30;99.90;;;;;;4990984;28;20181;-75
2023/06/08 03:05:58;;;;;;;18.27;17.23;;;12.30;99.90;;;;;;4973704;28;20184;-74
2023/06/08 03:08:28;;;;;;;21.87;20.50;;;12.30;99.90;;;;;;4990601;28;20280;-74
2023/06/08 03:10:54;;;;;;;13.87;13.10;;;12.30;99.90;;;;;;4967751;28;20228;-75
2023/06/08 03:13:21;;;;;;;18.33;17.20;;;12.20;99.90;;;;;;4943138;29;20194;-75
2023/06/08 03:15:47;;;;;;;21.57;20.33;;;12.20;99.90;;;;;;4941388;28;20627;-74
2023/06/08 03:18:13;;;;;;;15.43;14.60;;;12.20;99.90;;;;;;4975736;28;20603;-75
2023/06/08 03:20:40;;;;;;;11.17;10.57;;;12.20;99.90;;;;;;4977959;28;20216;-75
2023/06/08 03:23:07;;;;;;;14.87;14.00;;;12.10;99.90;;;;;;4957100;28;20196;-74
2023/06/08 03:25:36;;;;;;;18.27;16.97;;;12.00;99.90;;;;;;4949886;28;20260;-75
2023/06/08 03:28:03;;;;;;;15.50;14.67;;;11.90;99.90;;;;;;4974797;28;20291;-74
2023/06/08 03:30:29;;;;;;;34.13;32.30;;;11.90;99.90;;;;;;4974054;28;20248;-75
2023/06/08 03:32:55;;;;;;;51.67;49.00;;;11.90;99.90;;;;;;4968042;28;20683;-75
2023/06/08 03:35:21;;;;;;;44.27;41.87;;;11.90;99.90;;;;;;4975329;28;20209;-75
2023/06/08 03:37:46;;;;;;;46.27;43.63;;;11.90;99.90;;;;;;4974790;28;20280;-74
2023/06/08 03:40:12;;;;;;;88.10;83.57;;;11.90;99.90;;;;;;4975214;28;20377;-75
2023/06/08 03:42:38;;;;;;;58.83;55.70;;;12.00;99.90;;;;;;4954004;28;20623;-74
2023/06/08 03:45:05;;;;;;;9.40;8.50;;;12.10;99.90;;;;;;4961212;28;20687;-75
2023/06/08 03:47:31;;;;;;;9.77;9.03;;;12.20;99.90;;;;;;4957409;28;20197;-74
2023/06/08 03:49:57;;;;;;;14.83;13.83;;;12.20;99.90;;;;;;4938352;29;20221;-74
2023/06/08 03:52:23;;;;;;;13.00;12.23;;;12.20;99.90;;;;;;4965039;28;20291;-74
2023/06/08 03:54:49;;;;;;;12.20;11.30;;;12.30;99.90;;;;;;4971044;28;20273;-74
2023/06/08 03:57:16;;;;;;;16.17;15.27;;;12.30;99.90;;;;;;4970083;28;20239;-74
2023/06/08 03:59:41;;;;;;;17.17;16.13;;;12.40;99.90;;;;;;4974493;28;20220;-74
2023/06/08 04:02:07;;;;;;;15.40;14.40;;;12.40;99.90;;;;;;4971851;28;20223;-76
2023/06/08 04:04:34;;;;;;;21.30;20.10;;;12.40;99.90;;;;;;4947250;28;20237;-75
2023/06/08 04:07:01;;;;;;;27.43;25.90;;;12.40;99.90;;;;;;4949133;28;20188;-76
2023/06/08 04:09:29;;;;;;;30.47;28.80;;;12.50;99.90;;;;;;4949154;28;20216;-76
2023/06/08 04:11:56;;;;;;;26.93;25.47;;;12.60;99.90;;;;;;4954428;28;20271;-75
2023/06/08 04:14:22;;;;;;;61.30;57.83;;;12.60;99.90;;;;;;4966493;28;20619;-76
2023/06/08 04:16:48;;;;;;;33.63;30.33;;;12.60;99.90;;;;;;4974654;28;20276;-75
2023/06/08 04:19:14;;;;;;;34.47;32.60;;;12.70;99.90;;;;;;4957076;28;20280;-76
2023/06/08 04:21:40;;;;;;;42.70;40.27;;;12.80;99.90;;;;;;4954869;28;20293;-76
2023/06/08 04:24:06;;;;;;;18.13;16.87;;;12.90;99.90;;;;;;4973716;28;20872;-76
2023/06/08 04:26:32;;;;;;;16.97;15.97;;;12.90;99.90;;;;;;4950710;28;20601;-75
2023/06/08 04:28:58;;;;;;;15.97;15.07;;;12.80;99.90;;;;;;4976148;28;20204;-75
2023/06/08 04:31:24;;;;;;;21.47;20.33;;;12.80;99.90;;;;;;4956256;28;20213;-75
2023/06/08 04:33:50;;;;;;;20.77;19.57;;;13.00;99.90;;;;;;4974129;28;20208;-76
2023/06/08 04:36:16;;;;;;;19.30;18.20;;;13.10;99.90;;;;;;4973834;28;20189;-75
2023/06/08 04:38:42;;;;;;;20.07;18.77;;;13.20;99.90;;;;;;4956527;28;20193;-76
2023/06/08 04:41:08;;;;;;;18.50;17.40;;;13.40;99.90;;;;;;4973520;28;20275;-75
2023/06/08 04:43:36;;;;;;;22.97;21.67;;;13.60;99.90;;;;;;4970299;28;20244;-75
2023/06/08 04:46:04;;;;;;;157.40;149.43;;;13.80;99.90;;;;;;4967731;28;20196;-76
2023/06/08 04:48:33;;;;;;;21.63;20.43;;;14.10;99.90;;;;;;4973060;28;20295;-75
2023/06/08 04:51:02;;;;;;;37.33;35.33;;;14.40;99.90;;;;;;4956159;28;20216;-75
2023/06/08 04:53:34;;;;;;;103.37;98.17;;;14.70;99.90;;;;;;4971822;28;20189;-74
2023/06/08 04:56:01;;;;;;;28.07;26.40;;;15.00;99.90;;;;;;4973291;28;20203;-70
2023/06/08 04:58:28;;;;;;;23.27;21.83;;;15.40;99.90;;;;;;4965496;28;20192;-70
2023/06/08 05:00:54;;;;;;;137.47;130.40;;;15.70;99.90;;;;;;4974229;28;20759;-70
2023/06/08 05:03:21;;;;;;;42.50;40.25;;;15.90;99.90;;;;;;4953837;28;20637;-69
2023/06/08 05:05:47;;;;;;;12.30;11.50;;;16.10;99.90;;;;;;4965784;28;20197;-70
2023/06/08 05:08:13;;;;;;;10.45;9.75;;;16.30;99.90;;;;;;4971617;28;20244;-70
2023/06/08 05:10:38;;;;;;;9.90;9.30;;;16.60;99.90;;;;;;4972193;28;20224;-70
2023/06/08 05:13:04;;;;;;;10.60;9.80;;;16.60;99.90;;;;;;4971131;28;20556;-70
2023/06/08 05:15:33;;;;;;;8.80;8.27;;;16.50;99.90;;;;;;4972330;28;20281;-69
2023/06/08 05:17:59;;;;;;;8.40;7.80;;;16.40;99.90;;;;;;4955609;28;20240;-70
2023/06/08 05:20:26;;;;;;;10.47;9.77;;;16.10;99.90;;;;;;4973109;28;20606;-69
2023/06/08 05:22:53;;;;;;;10.57;9.73;;;15.80;99.90;;;;;;4945445;28;20239;-70
2023/06/08 05:25:19;;;;;;;10.27;9.48;;;15.70;99.90;;;;;;4971827;28;20628;-70
2023/06/08 05:27:45;;;;;;;10.23;9.53;;;15.60;99.90;;;;;;4955376;28;20220;-69
2023/06/08 05:30:11;;;;;;;11.80;11.00;;;15.60;99.90;;;;;;4951593;28;20201;-70
2023/06/08 05:32:37;;;;;;;12.47;11.33;;;15.60;99.90;;;;;;4946616;28;20189;-70
2023/06/08 05:35:04;;;;;;;11.93;10.93;;;15.70;99.90;;;;;;4971706;28;20193;-70
2023/06/08 05:37:29;;;;;;;11.60;10.27;;;15.90;99.90;;;;;;4955010;28;20196;-70
2023/06/08 05:39:55;;;;;;;11.80;10.80;;;15.90;99.90;;;;;;4955380;28;20201;-70
2023/06/08 05:42:21;;;;;;;12.43;11.38;;;16.00;99.90;;;;;;4963328;28;20268;-70
2023/06/08 05:44:47;;;;;;;11.40;10.60;;;16.30;99.90;;;;;;4955446;28;20611;-70
2023/06/08 05:47:13;;;;;;;10.60;9.70;;;16.40;99.90;;;;;;4954962;28;20235;-71
2023/06/08 05:49:38;;;;;;;9.20;8.43;;;16.50;99.90;;;;;;4972324;28;20217;-71
2023/06/08 05:52:05;;;;;;;9.65;8.85;;;16.70;99.90;;;;;;4971303;28;20202;-70
2023/06/08 05:54:30;;;;;;;8.18;7.63;;;16.90;99.90;;;;;;4954510;28;20193;-70
2023/06/08 05:56:56;;;;;;;11.13;10.10;;;17.50;99.90;;;;;;4972213;28;20212;-69
2023/06/08 05:59:22;;;;;;;13.77;12.93;;;18.30;99.90;;;;;;4972481;28;20193;-70
2023/06/08 06:01:49;;;;;;;9.70;9.00;;;19.10;99.90;;;;;;4971571;28;20228;-71
2023/06/08 06:04:15;;;;;;;12.48;11.70;;;19.90;99.90;;;;;;4972793;28;20275;-71
2023/06/08 06:06:42;;;;;;;12.02;11.15;;;20.60;99.90;;;;;;4961068;28;20278;-72
2023/06/08 06:09:08;;;;;;;10.13;9.52;;;21.20;99.90;;;;;;4954513;28;20292;-71
2023/06/08 06:11:34;;;;;;;10.77;9.98;;;22.00;99.90;;;;;;4967085;28;20216;-71
2023/06/08 06:14:00;;;;;;;12.23;11.43;;;22.20;99.90;;;;;;4949407;28;20185;-72
2023/06/08 06:16:25;;;;;;;16.98;15.88;;;22.30;99.90;;;;;;4966577;28;20189;-71
2023/06/08 06:18:51;;;;;;;10.77;9.98;;;22.50;99.90;;;;;;4967811;28;20755;-72
2023/06/08 06:21:17;;;;;;;8.93;8.43;;;22.40;99.90;;;;;;4967999;28;20209;-71
2023/06/08 06:23:44;;;;;;;9.13;8.43;;;22.40;99.90;;;;;;4963865;28;20192;-71
2023/06/08 06:26:11;;;;;;;8.23;7.72;;;22.70;99.90;;;;;;4954953;28;20189;-74
2023/06/08 06:28:38;;;;;;;8.70;8.10;;;23.20;99.90;;;;;;4932078;28;20181;-69
2023/06/08 06:31:05;;;;;;;12.75;11.70;;;23.50;99.90;;;;;;4957473;28;20282;-69
2023/06/08 06:33:30;;;;;;;15.65;14.75;;;23.60;99.90;;;;;;4970931;28;20189;-69
2023/06/08 06:35:56;;;;;;;13.73;12.75;;;23.80;99.90;;;;;;4972511;28;20188;-68
2023/06/08 06:38:23;;;;;;;12.02;11.00;;;24.30;99.90;;;;;;4966874;28;20182;-68
2023/06/08 06:40:52;;;;;;;9.20;8.45;;;24.20;99.90;;;;;;4968433;28;20217;-68
2023/06/08 06:43:21;;;;;;;8.05;7.45;;;24.00;99.90;;;;;;4972232;28;20197;-68
2023/06/08 06:45:51;;;;;;;7.18;6.55;;;24.30;99.90;;;;;;4956816;28;20225;-69
2023/06/08 06:48:21;;;;;;;7.05;6.40;;;24.50;99.90;;;;;;4972643;28;20681;-69
2023/06/08 06:50:47;;;;;;;8.05;7.43;;;25.00;99.70;;;;;;4950375;28;20217;-69
2023/06/08 06:53:13;;;;;;;7.53;6.97;;;24.60;99.20;;;;;;4970696;28;20192;-68
2023/06/08 06:55:39;;;;;;;7.20;6.75;;;24.20;99.90;;;;;;4975699;28;20275;-69
2023/06/08 06:58:06;;;;;;;7.97;7.38;;;24.60;99.20;;;;;;4974243;28;20181;-68
2023/06/08 07:00:36;;;;;;;7.85;7.25;;;24.60;99.40;;;;;;4973511;28;20225;-68
2023/06/08 07:03:06;;;;;;;8.30;7.68;;;24.70;99.60;;;;;;4975822;28;20200;-68
2023/06/08 07:05:36;;;;;;;8.77;8.18;;;25.10;98.60;;;;;;4975478;28;20708;-68
2023/06/08 07:08:03;;;;;;;8.07;7.57;;;25.50;97.40;;;;;;4974719;28;20197;-70
2023/06/08 07:10:29;;;;;;;8.15;7.55;;;25.10;98.20;;;;;;4953248;28;20244;-68
2023/06/08 07:12:56;;;;;;;8.70;7.90;;;25.10;98.30;;;;;;4975489;28;20852;-72
2023/06/08 07:15:22;;;;;;;8.45;7.85;;;25.00;98.70;;;;;;4967461;28;20614;-69
2023/06/08 07:17:48;;;;;;;10.38;9.38;;;25.30;99.20;;;;;;4957785;28;20645;-70
2023/06/08 07:20:14;;;;;;;9.73;8.98;;;25.70;98.10;;;;;;4972421;28;20276;-69
2023/06/08 07:22:40;;;;;;;12.52;11.70;;;26.00;98.00;;;;;;4958352;28;20650;-69
2023/06/08 07:25:07;;;;;;;16.08;15.23;;;26.40;96.20;;;;;;4957868;28;20200;-70
2023/06/08 07:27:33;;;;;;;19.08;17.73;;;26.80;94.90;;;;;;4957586;28;20239;-70
2023/06/08 07:29:58;;;;;;;17.13;15.82;;;27.10;94.20;;;;;;4972347;28;20283;-69
2023/06/08 07:32:26;;;;;;;15.32;14.43;;;27.30;94.20;;;;;;4974855;28;20228;-70
2023/06/08 07:34:52;;;;;;;14.68;13.65;;;27.40;94.50;;;;;;4975042;28;20200;-70
2023/06/08 07:37:18;;;;;;;12.07;11.18;;;27.70;92.70;;;;;;4974642;28;20216;-70
2023/06/08 07:39:44;;;;;;;11.88;11.10;;;27.50;92.30;;;;;;4972071;28;20645;-70
2023/06/08 07:42:10;;;;;;;10.95;10.20;;;27.00;93.50;;;;;;4974571;28;20212;-70
2023/06/08 07:44:35;;;;;;;10.63;9.95;;;27.30;92.60;;;;;;4974621;28;20231;-70
2023/06/08 07:47:01;;;;;;;12.88;11.80;;;27.20;91.80;;;;;;4974388;28;20196;-70
2023/06/08 07:49:30;;;;;;;15.30;14.30;;;26.80;92.40;;;;;;4972091;28;20260;-70
2023/06/08 07:51:56;;;;;;;12.55;11.85;;;26.50;92.20;;;;;;4957734;28;20712;-70
2023/06/08 07:54:22;;;;;;;16.38;15.43;;;26.50;93.80;;;;;;4974551;28;20189;-70
2023/06/08 07:56:48;;;;;;;13.98;13.15;;;26.50;91.90;;;;;;4974547;28;20185;-71
2023/06/08 07:59:14;;;;;;;15.95;14.63;;;26.20;92.60;;;;;;4971153;28;20543;-75
2023/06/08 08:01:42;;;;;;;16.85;15.73;;;26.30;91.70;;;;;;4974986;28;20255;-76
2023/06/08 08:04:08;;;;;;;14.60;13.80;;;26.60;91.50;;;;;;4974612;28;20280;-76
2023/06/08 08:06:34;;;;;;;11.27;10.57;;;26.60;91.10;;;;;;4974779;28;20220;-76
2023/06/08 08:09:00;;;;;;;13.65;12.95;;;27.10;90.20;;;;;;4973004;28;20581;-76
2023/06/08 08:11:26;;;;;;;11.75;10.95;;;27.00;90.60;;;;;;4973492;28;20213;-76
2023/06/08 08:13:52;;;;;;;15.52;13.88;;;26.90;90.90;;;;;;4967044;28;20188;-76
2023/06/08 08:16:18;;;;;;;9.70;8.93;;;27.40;91.80;;;;;;4974307;28;20248;-76
2023/06/08 08:18:44;;;;;;;11.90;7.70;;;28.00;91.50;;;;;;4965367;28;20232;-73
2023/06/08 08:21:10;;;;;;;9.63;8.90;;;28.40;88.80;;;;;;4974626;28;20247;-74
2023/06/08 08:23:38;;;;;;;7.22;6.65;;;28.10;88.00;;;;;;4957105;28;20216;-74
2023/06/08 08:26:03;;;;;;;6.22;5.82;;;28.70;87.50;;;;;;4976202;28;20203;-74
2023/06/08 08:28:30;;;;;;;17.35;9.10;;;29.10;83.90;;;;;;4974200;28;20609;-75
2023/06/08 08:30:56;;;;;;;7.80;7.00;;;29.20;83.40;;;;;;4952184;28;20221;-75
2023/06/08 08:33:22;;;;;;;10.13;9.43;;;29.70;85.40;;;;;;4956331;28;20185;-75
2023/06/08 08:35:48;;;;;;;10.55;9.63;;;30.20;83.20;;;;;;4974016;28;20224;-75
2023/06/08 08:38:13;;;;;;;14.88;14.07;;;30.20;79.60;;;;;;4973747;28;20224;-74
2023/06/08 08:40:42;;;;;;;14.82;14.02;;;30.00;80.60;;;;;;4966008;28;20213;-75
2023/06/08 08:43:27;;;;;;;8.88;8.27;;;30.30;81.50;;;;;;4974305;28;20217;-74
2023/06/08 08:45:54;;;;;;;10.20;9.45;;;30.30;77.70;;;;;;4974240;28;20197;-75
2023/06/08 08:48:22;;;;;;;9.77;8.98;;;30.20;78.60;;;;;;4974353;28;20189;-77
2023/06/08 08:50:58;;;;;;;9.55;9.05;;;30.60;78.80;;;;;;4949302;28;20716;-77
2023/06/08 08:53:30;;;;;;;11.23;10.27;;;30.20;79.30;;;;;;4975124;28;20208;-77
2023/06/08 08:56:03;;;;;;;10.30;9.70;;;30.10;80.50;;;;;;4956599;28;20189;-77
2023/06/08 08:58:30;;;;;;;8.95;8.18;;;30.20;79.20;;;;;;4955413;28;20208;-77
2023/06/08 09:00:56;;;;;;;9.75;9.05;;;30.20;78.30;;;;;;4967122;28;20224;-77
2023/06/08 09:03:22;;;;;;;8.93;8.15;;;30.30;76.70;;;;;;4973795;28;20543;-77
2023/06/08 09:05:52;;;;;;;8.00;7.50;;;30.30;75.50;;;;;;4948369;28;20219;-77
2023/06/08 09:08:17;;;;;;;10.50;9.82;;;30.00;76.50;;;;;;4972900;28;20231;-78
2023/06/08 09:10:43;;;;;;;7.80;7.30;;;30.40;76.10;;;;;;4968123;28;20669;-77
2023/06/08 09:13:20;;;;;;;6.93;6.43;;;31.30;75.30;;;;;;4957054;28;20276;-77
2023/06/08 09:15:46;;;;;;;8.15;7.45;;;31.50;73.10;;;;;;5012000;23;20738;-79
2023/06/08 09:18:17;;;;;;;9.15;8.55;;;31.70;71.20;;;;;;4978547;28;20191;-77
2023/06/08 09:20:46;;;;;;;8.82;8.32;;;31.80;68.50;;;;;;4973197;28;20192;-78
2023/06/08 09:23:22;;;;;;;9.05;8.45;;;31.90;68.30;;;;;;4981379;28;20670;-79
2023/06/08 09:25:48;;;;;;;10.50;9.90;;;31.70;69.30;;;;;;4965216;28;20217;-78
2023/06/08 09:28:25;;;;;;;9.48;8.93;;;31.90;66.90;;;;;;4963389;28;20189;-78
2023/06/08 09:30:56;;;;;;;11.73;11.13;;;32.00;66.10;;;;;;4953579;28;20212;-78
2023/06/08 09:33:29;;;;;;;11.50;10.80;;;31.90;64.30;;;;;;4977736;28;20189;-78
2023/06/08 09:35:59;;;;;;;11.25;10.55;;;31.90;64.80;;;;;;4963276;28;20213;-77
2023/06/08 09:38:26;;;;;;;15.23;14.32;;;32.10;64.10;;;;;;4980487;28;20200;-78
2023/06/08 09:41:12;;;;;;;9.65;9.05;;;32.50;63.20;;;;;;4956620;28;20185;-77
2023/06/08 09:43:38;;;;;;;27.80;26.13;;;32.50;63.90;;;;;;4967810;28;20202;-78
2023/06/08 09:46:05;;;;;;;38.30;36.25;;;33.20;62.10;;;;;;4964146;28;20208;-77
2023/06/08 09:48:33;;;;;;;50.95;48.40;;;32.80;61.40;;;;;;4979592;28;20200;-76
2023/06/08 09:51:00;;;;;;;41.63;39.42;;;32.80;61.90;;;;;;4973488;28;20244;-78
2023/06/08 09:53:28;;;;;;;35.58;33.67;;;32.40;62.70;;;;;;4954609;28;20637;-78
2023/06/08 09:55:54;;;;;;;33.55;31.65;;;32.30;63.00;;;;;;4961826;28;20224;-78
2023/06/08 09:58:25;;;;;;;15.85;15.02;;;32.10;64.60;;;;;;4961392;28;20197;-78
2023/06/08 10:00:58;;;;;;;47.95;45.45;;;32.20;64.00;;;;;;4973403;28;20216;-77
2023/06/08 10:03:30;;;;;;;39.58;37.63;;;33.00;62.30;;;;;;4961452;28;20572;-78
2023/06/08 10:05:58;;;;;;;39.17;37.20;;;33.40;59.80;;;;;;4962005;28;20578;-78
2023/06/08 10:08:27;;;;;;;53.63;50.95;;;32.90;61.30;;;;;;4982964;28;20189;-78
2023/06/08 10:10:55;;;;;;;20.63;19.52;;;31.90;63.60;;;;;;4959489;28;20216;-77
2023/06/08 10:13:22;;;;;;;13.50;8.35;;;30.60;65.00;;;;;;4980429;28;20199;-77
2023/06/08 10:15:48;;;;;;;6.30;5.90;;;30.20;66.00;;;;;;4962809;28;20221;-78
2023/06/08 10:18:14;;;;;;;7.25;6.75;;;30.00;68.30;;;;;;4979205;28;20565;-78
2023/06/08 10:20:41;;;;;;;7.05;6.47;;;30.40;67.80;;;;;;4972295;28;20199;-78
2023/06/08 10:23:08;;;;;;;9.65;9.10;;;30.20;66.90;;;;;;4961504;28;20216;-77
2023/06/08 10:25:35;;;;;;;14.70;13.80;;;29.60;69.90;;;;;;4961318;28;20225;-77
2023/06/08 10:28:05;;;;;;;9.75;9.23;;;29.10;68.90;;;;;;4960414;28;20663;-78
2023/06/08 10:30:39;;;;;;;9.00;8.30;;;28.90;70.00;;;;;;4954205;28;20243;-77
2023/06/08 10:33:15;;;;;;;10.07;9.25;;;29.00;71.30;;;;;;4975680;28;20676;-77
2023/06/08 10:35:43;;;;;;;10.18;9.48;;;29.70;70.30;;;;;;4957504;28;20212;-77
2023/06/08 10:38:14;;;;;;;9.70;9.10;;;30.60;68.30;;;;;;4958320;28;20195;-77
2023/06/08 10:40:45;;;;;;;7.32;6.60;;;31.20;66.90;;;;;;4954294;28;20980;-77
2023/06/08 10:43:11;;;;;;;7.43;6.95;;;31.80;66.70;;;;;;4959935;28;20188;-77
2023/06/08 10:45:39;;;;;;;19.98;18.83;;;32.60;64.10;;;;;;4977615;28;20208;-78
2023/06/08 10:48:09;;;;;;;48.83;46.38;;;33.40;60.80;;;;;;4972996;29;20180;-76
2023/06/08 10:50:39;;;;;;;54.58;51.88;;;33.70;60.70;;;;;;4950131;28;20247;-77
2023/06/08 10:53:05;;;;;;;7.50;6.93;;;34.30;60.40;;;;;;4950453;28;20601;-77
2023/06/08 10:55:31;;;;;;;6.53;6.13;;;34.80;58.00;;;;;;4971945;28;20209;-77
2023/06/08 10:58:06;;;;;;;8.20;7.75;;;35.10;55.50;;;;;;4956297;28;20567;-76
2023/06/08 11:00:33;;;;;;;21.33;20.23;;;34.80;54.70;;;;;;4952483;28;20198;-77
2023/06/08 11:02:59;;;;;;;34.25;32.53;;;34.40;53.20;;;;;;4958824;28;20269;-76
2023/06/08 11:05:29;;;;;;;20.65;19.55;;;33.80;52.20;;;;;;4965152;28;20217;-77
2023/06/08 11:07:56;;;;;;;23.27;21.92;;;33.70;53.40;;;;;;4973686;28;20196;-77
2023/06/08 11:10:23;;;;;;;13.02;12.38;;;33.00;54.60;;;;;;4955007;28;20214;-77
2023/06/08 11:12:49;;;;;;;6.13;5.82;;;32.20;55.20;;;;;;4970161;28;20193;-77
2023/06/08 11:15:17;;;;;;;6.85;6.43;;;30.90;54.50;;;;;;4975182;28;20228;-78
2023/06/08 11:18:04;;;;;;;12.68;11.88;;;30.20;55.60;;;;;;4954643;28;20235;-78
2023/06/08 11:20:31;;;;;;;44.03;41.72;;;29.70;56.30;;;;;;4959508;28;20570;-76
2023/06/08 11:23:00;;;;;;;21.85;20.65;;;29.30;57.70;;;;;;4962963;28;20540;-79
2023/06/08 11:25:27;;;;;;;22.15;20.75;;;29.30;58.80;;;;;;4970424;28;20224;-81
2023/06/08 11:27:55;;;;;;;10.35;9.75;;;29.10;57.00;;;;;;4971556;28;20180;-78
2023/06/08 11:30:31;;;;;;;9.82;9.23;;;29.00;58.60;;;;;;4959995;28;20228;-77
2023/06/08 11:32:58;;;;;;;8.00;7.47;;;28.70;58.60;;;;;;4966908;28;20192;-77
2023/06/08 11:35:24;;;;;;;7.75;7.25;;;28.70;59.00;;;;;;4966911;28;20213;-77
2023/06/08 11:37:53;;;;;;;6.43;6.03;;;28.70;58.40;;;;;;4959448;28;20185;-78
2023/06/08 11:40:18;;;;;;;18.10;16.83;;;28.40;59.80;;;;;;4972043;28;20192;-78
2023/06/08 11:42:45;;;;;;;15.80;14.80;;;28.10;65.90;;;;;;4970912;28;20197;-79
2023/06/08 11:45:12;;;;;;;8.48;7.88;;;27.90;71.10;;;;;;4977879;28;20232;-78
2023/06/08 11:47:42;;;;;;;8.13;7.63;;;27.80;73.40;;;;;;4960926;28;20197;-77
2023/06/08 11:50:10;;;;;;;8.02;7.43;;;27.80;74.00;;;;;;4978956;28;20213;-79
2023/06/08 11:52:39;;;;;;;8.15;7.45;;;27.90;75.40;;;;;;4985447;28;20255;-76
2023/06/08 11:55:13;;;;;;;8.90;8.13;;;28.20;76.60;;;;;;4961992;28;20219;-79
2023/06/08 11:57:44;;;;;;;8.75;8.13;;;28.40;74.00;;;;;;4962611;28;20373;-78
2023/06/08 12:00:20;;;;;;;9.93;8.93;;;28.60;73.90;;;;;;4957980;29;20204;-77
2023/06/08 12:02:50;;;;;;;9.10;8.50;;;28.60;72.90;;;;;;4956950;28;20656;-76
2023/06/08 12:05:23;;;;;;;12.73;11.82;;;28.40;70.30;;;;;;4954807;28;20748;-76
2023/06/08 12:08:02;;;;;;;10.15;9.55;;;28.10;67.20;;;;;;4948510;28;20196;-75
2023/06/08 12:10:36;;;;;;;10.35;9.70;;;27.90;64.90;;;;;;4954640;28;20299;-75
2023/06/08 12:13:06;;;;;;;9.27;8.77;;;27.80;65.80;;;;;;4968828;28;20201;-74
2023/06/08 12:15:49;;;;;;;12.00;11.32;;;27.80;63.80;;;;;;4971339;28;20616;-74
2023/06/08 12:18:16;;;;;;;11.93;10.93;;;27.80;65.90;;;;;;4969730;28;20196;-75
2023/06/08 12:20:43;;;;;;;13.02;12.25;;;28.00;67.80;;;;;;4973111;28;20193;-77
2023/06/08 12:23:11;;;;;;;17.13;15.30;;;28.00;66.00;;;;;;4956429;28;20189;-79
2023/06/08 12:25:37;;;;;;;15.57;14.43;;;28.00;65.30;;;;;;4950176;28;20210;-76
2023/06/08 12:28:03;;;;;;;12.27;11.13;;;27.90;66.50;;;;;;4938038;29;20197;-77
2023/06/08 12:30:29;;;;;;;17.30;10.98;;;27.80;71.00;;;;;;4955635;28;20215;-78
2023/06/08 12:32:55;;;;;;;76.10;71.53;;;27.50;75.40;;;;;;4974544;28;20231;-78
2023/06/08 12:35:22;;;;;;;19.73;17.58;;;26.50;88.60;;;;;;4986257;28;20209;-78
2023/06/08 12:37:49;;;;;;;16.33;14.05;;;25.20;92.20;;;;;;4976535;28;20348;-79
2023/06/08 12:40:19;;;;;;;24.98;22.95;;;24.10;92.60;;;;;;4951184;28;20189;-79
2023/06/08 12:42:51;;;;;;;37.10;34.85;;;23.50;93.10;;;;;;4979097;28;20193;-80
2023/06/08 12:45:21;;;;;;;45.78;43.08;;;23.30;99.10;;;;;;4954834;28;20240;-81
2023/06/08 12:47:47;;;;;;;154.23;146.38;;;23.20;99.30;;;;;;4959996;28;20185;-77
2023/06/08 12:50:17;;;;;;;166.88;157.68;;;23.10;99.90;;;;;;4962993;28;20221;-78
2023/06/08 12:52:43;;;;;;;150.88;143.07;;;23.10;99.30;;;;;;4961746;28;20197;-78
2023/06/08 12:55:09;;;;;;;71.82;67.75;;;23.10;99.30;;;;;;4950735;28;20201;-79
2023/06/08 12:57:36;;;;;;;59.47;56.10;;;23.20;99.90;;;;;;4959098;28;20248;-77
2023/06/08 13:00:06;;;;;;;109.60;103.13;;;23.20;99.90;;;;;;4960799;28;20193;-76
2023/06/08 13:02:32;;;;;;;170.85;161.30;;;23.30;99.90;;;;;;4974703;28;20225;-77
2023/06/08 13:04:58;;;;;;;90.00;84.70;;;23.30;99.90;;;;;;4949718;28;20201;-77
2023/06/08 13:07:24;;;;;;;111.72;105.18;;;23.60;99.90;;;;;;4975377;28;20227;-76
2023/06/08 13:09:52;;;;;;;183.35;173.30;;;23.90;99.90;;;;;;4969238;28;20209;-77
2023/06/08 13:12:18;;;;;;;132.18;124.63;;;24.10;99.90;;;;;;4945105;28;20189;-77
2023/06/08 13:14:44;;;;;;;123.93;117.25;;;24.20;99.90;;;;;;4959967;28;20251;-76
2023/06/08 13:17:10;;;;;;;44.75;42.13;;;24.20;99.90;;;;;;4973196;28;20240;-76
2023/06/08 13:19:36;;;;;;;31.48;29.73;;;24.10;99.90;;;;;;4955979;28;20736;-76
2023/06/08 13:22:02;;;;;;;15.63;14.63;;;24.00;99.90;;;;;;4956499;28;20653;-76
2023/06/08 13:24:28;;;;;;;12.45;11.63;;;23.90;99.90;;;;;;4949652;28;20208;-76
2023/06/08 13:26:54;;;;;;;25.25;23.20;;;23.90;99.90;;;;;;4973054;28;20193;-76
2023/06/08 13:29:21;;;;;;;42.88;40.47;;;23.80;99.90;;;;;;4955915;28;20217;-77
2023/06/08 13:31:47;;;;;;;101.68;96.28;;;23.80;99.90;;;;;;4955766;28;20193;-76
2023/06/08 13:34:13;;;;;;;163.68;155.38;;;23.80;99.90;;;;;;4966635;28;20205;-76
2023/06/08 13:36:40;;;;;;;124.63;118.30;;;23.60;99.90;;;;;;4957953;28;20221;-76
2023/06/08 13:39:06;;;;;;;93.50;88.65;;;23.40;99.90;;;;;;4955545;28;20191;-76
2023/06/08 13:41:35;;;;;;;165.80;157.25;;;23.30;99.90;;;;;;4972939;28;20189;-77
2023/06/08 13:44:04;;;;;;;114.78;108.95;;;23.00;99.90;;;;;;4968301;28;20174;-77
2023/06/08 13:46:32;;;;;;;110.00;104.45;;;22.80;99.90;;;;;;4970602;28;20300;-77
2023/06/08 13:48:57;;;;;;;62.92;59.75;;;22.80;99.90;;;;;;4972343;28;20196;-75
2023/06/08 13:51:23;;;;;;;74.07;70.15;;;22.80;99.90;;;;;;4972717;28;20208;-77
2023/06/08 13:53:49;;;;;;;43.42;40.90;;;22.90;99.90;;;;;;4969898;28;20287;-76
2023/06/08 13:56:16;;;;;;;8.85;8.20;;;23.10;99.90;;;;;;4967652;28;20669;-77
2023/06/08 13:58:42;;;;;;;10.65;9.75;;;23.20;99.90;;;;;;4954936;28;20185;-76
2023/06/08 14:01:08;;;;;;;13.73;12.73;;;23.30;99.90;;;;;;4972682;28;20201;-75
2023/06/08 14:03:35;;;;;;;8.27;7.78;;;23.40;99.90;;;;;;4954833;28;20189;-76
2023/06/08 14:06:01;;;;;;;8.63;7.95;;;23.20;99.40;;;;;;4965961;28;20697;-76
2023/06/08 14:08:27;;;;;;;7.82;7.18;;;23.20;99.20;;;;;;4954896;28;20195;-77
2023/06/08 14:10:52;;;;;;;11.40;7.43;;;23.20;99.40;;;;;;4972381;28;20248;-76
2023/06/08 14:13:18;;;;;;;8.38;7.75;;;23.10;99.40;;;;;;4972708;28;20185;-76
2023/06/08 14:15:44;;;;;;;13.55;12.75;;;22.80;99.80;;;;;;4941282;28;20216;-77
2023/06/08 14:18:10;;;;;;;11.32;10.52;;;22.70;99.90;;;;;;4969830;28;20188;-76
2023/06/08 14:20:37;;;;;;;11.68;10.73;;;22.70;99.90;;;;;;4981291;28;20196;-76
2023/06/08 14:23:03;;;;;;;13.82;12.73;;;22.80;99.90;;;;;;4959505;28;20570;-75
2023/06/08 14:25:29;;;;;;;12.55;11.55;;;23.00;99.90;;;;;;4965849;28;20654;-76
2023/06/08 14:27:56;;;;;;;9.23;8.00;;;23.20;99.60;;;;;;4954678;28;20243;-77
2023/06/08 14:30:23;;;;;;;10.70;10.02;;;23.40;98.80;;;;;;4954933;28;20216;-76
2023/06/08 14:32:49;;;;;;;32.10;30.10;;;23.70;98.60;;;;;;4972146;28;20555;-76
2023/06/08 14:35:15;;;;;;;35.97;33.97;;;24.00;96.80;;;;;;4965963;28;20275;-77
2023/06/08 14:37:41;;;;;;;28.55;26.95;;;24.20;97.00;;;;;;4954633;28;20661;-77
2023/06/08 14:40:07;;;;;;;12.63;11.70;;;24.50;96.50;;;;;;4972125;28;20278;-77
2023/06/08 14:42:32;;;;;;;9.02;8.32;;;24.90;96.00;;;;;;4965977;28;20192;-77
2023/06/08 14:44:58;;;;;;;8.82;7.90;;;25.30;96.40;;;;;;4972040;28;20304;-76
2023/06/08 14:47:24;;;;;;;10.10;9.30;;;26.00;95.50;;;;;;4971730;28;20691;-76
2023/06/08 14:49:50;;;;;;;7.70;7.10;;;26.80;94.40;;;;;;4954883;28;20266;-76
2023/06/08 14:52:15;;;;;;;13.88;12.95;;;28.00;93.30;;;;;;4949289;28;20559;-76
2023/06/08 14:54:41;;;;;;;28.67;27.08;;;29.20;91.00;;;;;;4965774;28;20205;-77
2023/06/08 14:57:07;;;;;;;14.95;13.75;;;30.40;87.30;;;;;;4954734;28;20831;-77
2023/06/08 14:59:33;;;;;;;18.80;17.70;;;31.30;81.70;;;;;;4972070;28;20276;-77
2023/06/08 15:01:59;;;;;;;13.35;12.45;;;31.40;80.80;;;;;;4966508;28;20208;-77
2023/06/08 15:04:25;;;;;;;35.15;33.15;;;32.00;80.10;;;;;;4950009;28;20287;-76
2023/06/08 15:06:51;;;;;;;26.35;24.77;;;31.90;78.00;;;;;;4971938;28;20188;-75
2023/06/08 15:09:17;;;;;;;12.18;11.48;;;32.00;77.70;;;;;;4975845;28;20200;-77
2023/06/08 15:11:42;;;;;;;7.05;6.55;;;32.50;71.30;;;;;;4970466;28;20195;-77
2023/06/08 15:16:35;;;;;;;6.78;6.18;;;32.10;71.20;;;;;;5012128;23;20714;-76
2023/06/08 15:19:01;;;;;;;7.20;6.70;;;32.90;69.40;;;;;;4994410;28;20192;-76
2023/06/08 15:21:27;;;;;;;8.95;8.23;;;33.50;68.40;;;;;;4990630;28;20235;-76
2023/06/08 15:23:53;;;;;;;25.88;24.40;;;33.50;63.80;;;;;;4978113;28;20199;-75
2023/06/08 15:26:18;;;;;;;36.30;34.47;;;33.60;60.90;;;;;;4977571;28;20669;-76
2023/06/08 15:28:45;;;;;;;22.17;20.88;;;33.90;59.60;;;;;;4975033;28;20197;-75
2023/06/08 15:31:12;;;;;;;14.18;13.40;;;34.30;58.30;;;;;;4972058;28;20727;-76
2023/06/08 15:33:38;;;;;;;9.15;8.48;;;35.20;56.40;;;;;;4974175;28;20572;-76
2023/06/08 15:36:04;;;;;;;15.15;14.38;;;34.00;56.40;;;;;;4957950;28;20205;-75